createdAt,value
2019-02-14T00:00:20.182Z,59.30
2019-02-14T00:01:24.646Z,59.40
2019-02-14T00:02:29.162Z,59.40
2019-02-14T00:03:33.706Z,59.40
2019-02-14T00:04:38.235Z,59.50
2019-02-14T00:05:42.697Z,59.50
2019-02-14T00:06:47.260Z,59.50
2019-02-14T00:07:51.719Z,59.60
2019-02-14T00:08:56.235Z,59.60
2019-02-14T00:10:00.701Z,59.60
2019-02-14T00:11:05.157Z,59.60
2019-02-14T00:12:09.667Z,59.60
2019-02-14T00:13:15.775Z,59.60
2019-02-14T00:14:20.263Z,59.60
2019-02-14T00:15:24.768Z,59.60
2019-02-14T00:16:29.287Z,59.60
2019-02-14T00:17:33.823Z,59.70
2019-02-14T00:18:38.278Z,59.70
2019-02-14T00:19:42.741Z,59.70
2019-02-14T00:20:47.249Z,59.60
2019-02-14T00:21:51.782Z,60.20
2019-02-14T00:22:56.263Z,59.60
2019-02-14T00:24:00.712Z,59.60
2019-02-14T00:25:06.962Z,59.60
2019-02-14T00:26:11.425Z,59.80
2019-02-14T00:27:15.938Z,59.70
2019-02-14T00:28:20.419Z,59.80
2019-02-14T00:29:24.873Z,59.90
2019-02-14T00:30:29.333Z,60.00
2019-02-14T00:31:33.824Z,60.00
2019-02-14T00:32:38.289Z,60.10
2019-02-14T00:33:42.754Z,60.10
2019-02-14T00:34:47.258Z,60.20
2019-02-14T00:35:51.749Z,60.30
2019-02-14T00:36:56.430Z,60.40
2019-02-14T00:38:00.871Z,60.40
2019-02-14T00:39:05.703Z,60.60
2019-02-14T00:40:10.271Z,60.60
2019-02-14T00:41:15.079Z,60.70
2019-02-14T00:42:19.548Z,60.70
2019-02-14T00:43:24.018Z,60.80
2019-02-14T00:44:28.486Z,60.80
2019-02-14T00:45:34.698Z,60.80
2019-02-14T00:46:39.338Z,60.80
2019-02-14T00:47:43.820Z,60.80
2019-02-14T00:48:48.321Z,60.90
2019-02-14T00:49:52.842Z,60.90
2019-02-14T00:50:57.318Z,60.90
2019-02-14T00:52:01.809Z,60.90
2019-02-14T00:53:06.308Z,61.00
2019-02-14T00:54:10.774Z,61.00
2019-02-14T00:55:15.249Z,60.90
2019-02-14T00:56:19.764Z,60.90
2019-02-14T00:57:24.250Z,60.90
2019-02-14T00:58:28.700Z,60.90
2019-02-14T00:59:33.159Z,60.80
2019-02-14T01:00:37.694Z,61.30
2019-02-14T01:01:42.158Z,60.80
2019-02-14T01:02:46.628Z,60.90
2019-02-14T01:03:51.095Z,60.90
2019-02-14T01:04:55.551Z,61.10
2019-02-14T01:06:00.059Z,61.10
2019-02-14T01:07:04.874Z,61.20
2019-02-14T01:08:09.341Z,61.30
2019-02-14T01:09:13.915Z,61.40
2019-02-14T01:10:18.408Z,61.40
2019-02-14T01:11:22.866Z,61.30
2019-02-14T01:12:27.309Z,61.20
2019-02-14T01:13:32.055Z,61.20
2019-02-14T01:14:36.523Z,61.30
2019-02-14T01:15:41.168Z,61.40
2019-02-14T01:16:45.724Z,61.30
2019-02-14T01:17:50.259Z,62.10
2019-02-14T01:18:54.749Z,61.20
2019-02-14T01:19:59.215Z,61.40
2019-02-14T01:21:03.760Z,61.20
2019-02-14T01:22:08.313Z,61.20
2019-02-14T01:23:12.856Z,61.20
2019-02-14T01:24:17.316Z,61.30
2019-02-14T01:25:21.788Z,61.30
2019-02-14T01:26:26.284Z,61.30
2019-02-14T01:27:30.771Z,61.20
2019-02-14T01:28:35.227Z,61.40
2019-02-14T01:29:39.727Z,61.40
2019-02-14T01:30:44.208Z,61.40
2019-02-14T01:31:48.677Z,61.40
2019-02-14T01:32:53.158Z,61.50
2019-02-14T01:33:57.631Z,61.50
2019-02-14T01:35:02.079Z,61.50
2019-02-14T01:36:06.610Z,62.10
2019-02-14T01:37:11.109Z,61.80
2019-02-14T01:38:15.591Z,62.00
2019-02-14T01:39:20.070Z,62.10
2019-02-14T01:40:24.538Z,62.20
2019-02-14T01:41:28.993Z,62.30
2019-02-14T01:42:33.484Z,62.40
2019-02-14T01:43:37.995Z,62.60
2019-02-14T01:44:42.585Z,62.60
2019-02-14T01:45:47.052Z,62.60
2019-02-14T01:46:51.559Z,62.60
2019-02-14T01:47:56.328Z,62.70
2019-02-14T01:49:00.809Z,62.70
2019-02-14T01:50:08.586Z,62.70
2019-02-14T01:51:13.072Z,62.70
2019-02-14T01:52:17.531Z,62.60
2019-02-14T01:53:21.995Z,62.50
2019-02-14T01:54:26.562Z,62.70
2019-02-14T01:55:32.548Z,62.60
2019-02-14T01:56:37.258Z,62.80
2019-02-14T01:57:41.731Z,62.70
2019-02-14T01:58:46.319Z,62.70
2019-02-14T01:59:50.860Z,62.80
2019-02-14T02:00:55.348Z,62.70
2019-02-14T02:01:59.888Z,62.90
2019-02-14T02:03:04.628Z,62.90
2019-02-14T02:04:09.080Z,63.10
2019-02-14T02:05:13.538Z,63.10
2019-02-14T02:06:18.031Z,63.20
2019-02-14T02:07:22.507Z,63.40
2019-02-14T02:08:27.055Z,63.40
2019-02-14T02:09:31.529Z,63.60
2019-02-14T02:10:36.004Z,63.60
2019-02-14T02:11:40.545Z,63.70
2019-02-14T02:12:45.067Z,63.70
2019-02-14T02:13:49.776Z,63.70
2019-02-14T02:14:54.255Z,63.80
2019-02-14T02:15:58.728Z,63.90
2019-02-14T02:17:03.272Z,64.00
2019-02-14T02:18:07.735Z,64.00
2019-02-14T02:19:12.204Z,64.10
2019-02-14T02:20:16.674Z,64.10
2019-02-14T02:21:21.130Z,64.20
2019-02-14T02:22:25.717Z,64.20
2019-02-14T02:23:30.184Z,64.30
2019-02-14T02:24:34.765Z,64.20
2019-02-14T02:25:39.284Z,64.30
2019-02-14T02:26:43.779Z,64.40
2019-02-14T02:27:48.537Z,64.40
2019-02-14T02:28:53.031Z,64.60
2019-02-14T02:29:58.085Z,64.60
2019-02-14T02:31:02.566Z,64.70
2019-02-14T02:32:07.043Z,64.80
2019-02-14T02:33:11.640Z,64.90
2019-02-14T02:34:16.063Z,65.10
2019-02-14T02:35:20.547Z,65.20
2019-02-14T02:36:25.029Z,65.30
2019-02-14T02:37:29.639Z,65.40
2019-02-14T02:38:34.198Z,65.40
2019-02-14T02:39:38.772Z,65.40
2019-02-14T02:40:43.265Z,65.60
2019-02-14T02:41:47.741Z,65.20
2019-02-14T02:42:52.358Z,65.70
2019-02-14T02:43:56.883Z,65.60
2019-02-14T02:45:01.661Z,65.60
2019-02-14T02:46:06.223Z,65.40
2019-02-14T02:47:10.689Z,65.40
2019-02-14T02:48:15.217Z,65.40
2019-02-14T02:49:19.737Z,65.40
2019-02-14T02:50:24.243Z,65.40
2019-02-14T02:51:28.786Z,65.40
2019-02-14T02:52:33.256Z,65.40
2019-02-14T02:53:37.740Z,65.40
2019-02-14T02:54:42.233Z,65.50
2019-02-14T02:55:46.754Z,65.50
2019-02-14T02:56:51.256Z,65.10
2019-02-14T02:57:55.721Z,65.60
2019-02-14T02:59:00.205Z,65.50
2019-02-14T03:00:13.581Z,65.40
2019-02-14T03:01:18.072Z,65.40
2019-02-14T03:02:22.521Z,65.30
2019-02-14T03:03:26.984Z,65.30
2019-02-14T03:04:31.448Z,65.30
2019-02-14T03:05:35.982Z,65.30
2019-02-14T03:06:40.459Z,65.40
2019-02-14T03:07:44.995Z,65.40
2019-02-14T03:08:49.677Z,65.30
2019-02-14T03:09:54.213Z,65.40
2019-02-14T03:10:58.695Z,65.30
2019-02-14T03:12:03.173Z,65.40
2019-02-14T03:13:07.642Z,65.30
2019-02-14T03:14:12.178Z,65.30
2019-02-14T03:15:16.894Z,65.20
2019-02-14T03:16:21.373Z,65.30
2019-02-14T03:17:26.148Z,65.30
2019-02-14T03:18:30.602Z,65.10
2019-02-14T03:19:35.386Z,65.10
2019-02-14T03:20:39.865Z,65.10
2019-02-14T03:21:44.326Z,65.10
2019-02-14T03:22:48.789Z,65.10
2019-02-14T03:23:53.348Z,65.10
2019-02-14T03:24:57.821Z,65.10
2019-02-14T03:26:02.316Z,65.10
2019-02-14T03:27:06.806Z,65.10
2019-02-14T03:28:11.295Z,65.40
2019-02-14T03:29:15.807Z,65.10
2019-02-14T03:30:20.330Z,65.30
2019-02-14T03:31:24.794Z,65.10
2019-02-14T03:32:29.256Z,65.10
2019-02-14T03:33:33.752Z,65.20
2019-02-14T03:34:38.239Z,65.10
2019-02-14T03:35:42.731Z,65.20
2019-02-14T03:36:47.235Z,65.20
2019-02-14T03:37:51.782Z,65.30
2019-02-14T03:38:56.247Z,65.10
2019-02-14T03:40:00.762Z,65.10
2019-02-14T03:41:05.479Z,65.10
2019-02-14T03:42:10.027Z,65.10
2019-02-14T03:43:14.509Z,65.20
2019-02-14T03:44:18.971Z,65.20
2019-02-14T03:45:23.486Z,65.20
2019-02-14T03:46:27.997Z,65.30
2019-02-14T03:47:32.466Z,65.30
2019-02-14T03:48:36.948Z,65.10
2019-02-14T03:49:41.403Z,65.30
2019-02-14T03:50:45.922Z,65.10
2019-02-14T03:51:50.371Z,65.10
2019-02-14T03:52:54.843Z,65.00
2019-02-14T03:53:59.355Z,65.00
2019-02-14T03:55:04.854Z,65.10
2019-02-14T03:56:09.345Z,65.10
2019-02-14T03:57:13.812Z,64.90
2019-02-14T03:58:18.298Z,64.90
2019-02-14T03:59:22.748Z,65.00
2019-02-14T04:00:27.208Z,64.90
2019-02-14T04:01:31.699Z,64.90
2019-02-14T04:02:36.167Z,64.90
2019-02-14T04:03:40.683Z,65.00
2019-02-14T04:04:45.174Z,65.10
2019-02-14T04:05:49.687Z,65.30
2019-02-14T04:06:54.146Z,65.30
2019-02-14T04:07:58.716Z,65.30
2019-02-14T04:09:04.627Z,65.30
2019-02-14T04:10:11.645Z,65.30
2019-02-14T04:11:16.093Z,65.40
2019-02-14T04:12:20.658Z,65.30
2019-02-14T04:13:25.119Z,65.40
2019-02-14T04:14:29.590Z,65.50
2019-02-14T04:15:34.252Z,65.60
2019-02-14T04:16:38.768Z,65.80
2019-02-14T04:17:43.391Z,65.80
2019-02-14T04:18:47.851Z,65.90
2019-02-14T04:19:52.503Z,66.10
2019-02-14T04:20:56.970Z,66.30
2019-02-14T04:22:01.434Z,66.60
2019-02-14T04:23:05.899Z,66.60
2019-02-14T04:24:10.376Z,66.80
2019-02-14T04:25:14.914Z,67.20
2019-02-14T04:26:19.384Z,67.20
2019-02-14T04:27:23.887Z,67.30
2019-02-14T04:28:28.440Z,67.30
2019-02-14T04:29:32.965Z,67.50
2019-02-14T04:30:37.449Z,67.60
2019-02-14T04:31:41.901Z,67.80
2019-02-14T04:32:46.389Z,67.90
2019-02-14T04:33:50.923Z,68.00
2019-02-14T04:34:55.433Z,67.90
2019-02-14T04:35:59.906Z,68.00
2019-02-14T04:37:04.427Z,67.90
2019-02-14T04:38:08.894Z,68.00
2019-02-14T04:39:13.346Z,68.00
2019-02-14T04:40:17.961Z,68.10
2019-02-14T04:41:22.583Z,68.20
2019-02-14T04:42:27.049Z,68.30
2019-02-14T04:43:31.590Z,68.30
2019-02-14T04:44:36.049Z,68.30
2019-02-14T04:45:40.548Z,68.30
2019-02-14T04:46:45.107Z,68.30
2019-02-14T04:47:49.596Z,68.30
2019-02-14T04:48:54.094Z,68.30
2019-02-14T04:49:58.555Z,68.50
2019-02-14T04:51:03.075Z,68.30
2019-02-14T04:52:07.650Z,68.30
2019-02-14T04:53:12.116Z,68.30
2019-02-14T04:54:16.662Z,68.40
2019-02-14T04:55:21.129Z,68.30
2019-02-14T04:56:25.642Z,68.20
2019-02-14T04:57:30.117Z,68.10
2019-02-14T04:58:34.567Z,68.10
2019-02-14T04:59:39.049Z,68.20
2019-02-14T05:00:43.539Z,68.00
2019-02-14T05:01:48.035Z,68.00
2019-02-14T05:02:52.501Z,68.70
2019-02-14T05:03:56.979Z,68.00
2019-02-14T05:05:01.473Z,68.00
2019-02-14T05:06:06.032Z,68.00
2019-02-14T05:07:10.517Z,67.90
2019-02-14T05:08:14.983Z,67.90
2019-02-14T05:09:19.471Z,68.00
2019-02-14T05:10:23.952Z,67.80
2019-02-14T05:11:28.442Z,67.80
2019-02-14T05:12:32.901Z,68.00
2019-02-14T05:13:37.430Z,67.80
2019-02-14T05:14:41.941Z,67.80
2019-02-14T05:15:46.777Z,67.80
2019-02-14T05:16:51.281Z,67.70
2019-02-14T05:17:55.798Z,67.70
2019-02-14T05:19:00.324Z,67.70
2019-02-14T05:20:08.108Z,67.70
2019-02-14T05:21:12.567Z,67.60
2019-02-14T05:22:17.033Z,67.50
2019-02-14T05:23:21.534Z,67.60
2019-02-14T05:24:26.011Z,67.50
2019-02-14T05:25:30.479Z,67.50
2019-02-14T05:26:34.997Z,67.50
2019-02-14T05:27:39.489Z,67.40
2019-02-14T05:28:43.968Z,67.40
2019-02-14T05:29:48.427Z,67.30
2019-02-14T05:30:52.912Z,67.30
2019-02-14T05:31:57.388Z,67.20
2019-02-14T05:33:01.837Z,67.20
2019-02-14T05:34:06.287Z,67.10
2019-02-14T05:35:10.886Z,67.10
2019-02-14T05:36:15.614Z,67.10
2019-02-14T05:37:20.076Z,67.00
2019-02-14T05:38:24.551Z,67.00
2019-02-14T05:39:29.070Z,67.00
2019-02-14T05:40:33.569Z,67.00
2019-02-14T05:41:38.016Z,67.00
2019-02-14T05:42:42.483Z,66.90
2019-02-14T05:43:46.944Z,67.00
2019-02-14T05:44:51.418Z,67.00
2019-02-14T05:45:55.920Z,66.90
2019-02-14T05:47:00.368Z,66.90
2019-02-14T05:48:05.769Z,67.60
2019-02-14T05:49:10.247Z,66.90
2019-02-14T05:50:15.073Z,66.80
2019-02-14T05:51:19.554Z,66.80
2019-02-14T05:52:24.050Z,66.70
2019-02-14T05:53:28.515Z,66.70
2019-02-14T05:54:32.967Z,66.80
2019-02-14T05:55:37.446Z,66.70
2019-02-14T05:56:42.366Z,66.80
2019-02-14T05:57:46.811Z,66.70
2019-02-14T05:58:51.292Z,66.70
2019-02-14T05:59:55.816Z,66.80
2019-02-14T06:01:00.823Z,66.70
2019-02-14T06:02:05.321Z,66.80
2019-02-14T06:03:09.776Z,66.70
2019-02-14T06:04:14.245Z,66.70
2019-02-14T06:05:18.717Z,67.50
2019-02-14T06:06:23.175Z,66.70
2019-02-14T06:07:27.654Z,66.70
2019-02-14T06:08:33.228Z,66.60
2019-02-14T06:09:37.704Z,66.60
2019-02-14T06:10:42.201Z,66.50
2019-02-14T06:11:46.691Z,66.50
2019-02-14T06:12:51.217Z,66.50
2019-02-14T06:13:55.688Z,66.50
2019-02-14T06:15:00.321Z,66.70
2019-02-14T06:16:04.774Z,66.70
2019-02-14T06:17:09.298Z,66.80
2019-02-14T06:18:13.751Z,67.00
2019-02-14T06:19:18.211Z,67.10
2019-02-14T06:20:22.691Z,67.10
2019-02-14T06:21:27.176Z,67.30
2019-02-14T06:22:31.689Z,67.40
2019-02-14T06:23:36.169Z,67.40
2019-02-14T06:24:40.733Z,67.50
2019-02-14T06:25:45.196Z,67.60
2019-02-14T06:26:49.667Z,67.50
2019-02-14T06:27:54.138Z,67.60
2019-02-14T06:28:58.622Z,67.70
2019-02-14T06:30:03.617Z,67.70
2019-02-14T06:31:08.099Z,67.80
2019-02-14T06:32:12.572Z,67.70
2019-02-14T06:33:17.109Z,67.80
2019-02-14T06:34:21.587Z,67.80
2019-02-14T06:35:26.076Z,67.80
2019-02-14T06:36:30.555Z,67.90
2019-02-14T06:37:35.031Z,67.80
2019-02-14T06:38:39.506Z,67.80
2019-02-14T06:39:44.041Z,67.80
2019-02-14T06:40:48.556Z,67.90
2019-02-14T06:41:53.073Z,68.00
2019-02-14T06:42:57.548Z,67.90
2019-02-14T06:44:02.030Z,68.00
2019-02-14T06:45:09.941Z,67.80
2019-02-14T06:46:14.421Z,67.80
2019-02-14T06:47:18.866Z,67.80
2019-02-14T06:48:23.350Z,67.80
2019-02-14T06:49:27.951Z,67.80
2019-02-14T06:50:34.795Z,67.80
2019-02-14T06:51:38.632Z,67.80
2019-02-14T06:52:43.177Z,67.70
2019-02-14T06:53:47.640Z,67.80
2019-02-14T06:54:52.113Z,68.00
2019-02-14T06:55:56.582Z,68.00
2019-02-14T06:57:01.094Z,68.10
2019-02-14T06:58:05.687Z,68.10
2019-02-14T06:59:10.152Z,68.10
2019-02-14T07:00:15.964Z,68.10
2019-02-14T07:01:20.450Z,68.20
2019-02-14T07:02:24.941Z,68.20
2019-02-14T07:03:29.516Z,68.30
2019-02-14T07:04:34.015Z,68.20
2019-02-14T07:05:38.448Z,68.20
2019-02-14T07:06:42.911Z,68.30
2019-02-14T07:07:47.477Z,68.30
2019-02-14T07:08:51.979Z,68.40
2019-02-14T07:09:56.459Z,68.40
2019-02-14T07:11:00.923Z,68.40
2019-02-14T07:12:05.411Z,68.40
2019-02-14T07:13:09.880Z,68.40
2019-02-14T07:14:14.352Z,68.40
2019-02-14T07:15:18.834Z,68.40
2019-02-14T07:16:23.295Z,68.30
2019-02-14T07:17:27.791Z,68.30
2019-02-14T07:18:32.329Z,68.20
2019-02-14T07:19:36.913Z,68.20
2019-02-14T07:20:41.385Z,68.50
2019-02-14T07:21:45.935Z,68.10
2019-02-14T07:22:50.417Z,68.20
2019-02-14T07:23:54.878Z,68.20
2019-02-14T07:24:59.369Z,68.30
2019-02-14T07:26:03.883Z,68.50
2019-02-14T07:27:08.409Z,68.50
2019-02-14T07:28:12.887Z,68.60
2019-02-14T07:29:17.411Z,68.70
2019-02-14T07:30:23.998Z,68.70
2019-02-14T07:31:28.503Z,68.80
2019-02-14T07:32:32.949Z,68.70
2019-02-14T07:33:37.457Z,68.60
2019-02-14T07:34:41.983Z,68.70
2019-02-14T07:35:46.471Z,68.70
2019-02-14T07:36:50.989Z,68.70
2019-02-14T07:37:56.337Z,68.60
2019-02-14T07:39:00.801Z,68.60
2019-02-14T07:40:08.394Z,68.70
2019-02-14T07:41:12.874Z,68.50
2019-02-14T07:42:17.335Z,68.50
2019-02-14T07:43:21.795Z,68.50
2019-02-14T07:44:26.273Z,68.50
2019-02-14T07:45:30.799Z,68.50
2019-02-14T07:46:35.278Z,68.50
2019-02-14T07:47:39.746Z,68.50
2019-02-14T07:48:44.254Z,68.10
2019-02-14T07:49:48.714Z,68.40
2019-02-14T07:50:53.182Z,68.50
2019-02-14T07:51:57.643Z,68.40
2019-02-14T07:53:02.117Z,68.40
2019-02-14T07:54:06.572Z,68.30
2019-02-14T07:55:12.315Z,68.40
2019-02-14T07:56:16.933Z,68.40
2019-02-14T07:57:21.542Z,68.30
2019-02-14T07:58:26.018Z,68.30
2019-02-14T07:59:30.498Z,68.20
2019-02-14T08:00:35.014Z,68.40
2019-02-14T08:01:39.524Z,68.40
2019-02-14T08:02:43.974Z,68.50
2019-02-14T08:03:48.490Z,68.60
2019-02-14T08:04:52.952Z,68.60
2019-02-14T08:05:57.439Z,68.50
2019-02-14T08:07:01.905Z,68.60
2019-02-14T08:08:06.432Z,68.50
2019-02-14T08:09:10.918Z,68.50
2019-02-14T08:10:18.881Z,68.70
2019-02-14T08:11:23.378Z,68.60
2019-02-14T08:12:27.957Z,68.70
2019-02-14T08:13:32.433Z,68.70
2019-02-14T08:14:36.940Z,68.80
2019-02-14T08:15:41.407Z,68.90
2019-02-14T08:16:45.885Z,69.00
2019-02-14T08:17:50.350Z,68.90
2019-02-14T08:18:54.818Z,69.00
2019-02-14T08:19:59.316Z,68.80
2019-02-14T08:21:03.777Z,68.80
2019-02-14T08:22:08.243Z,68.80
2019-02-14T08:23:12.705Z,68.80
2019-02-14T08:24:17.211Z,68.80
2019-02-14T08:25:21.713Z,68.80
2019-02-14T08:26:26.164Z,68.80
2019-02-14T08:27:30.647Z,68.70
2019-02-14T08:28:35.121Z,68.70
2019-02-14T08:29:39.587Z,68.60
2019-02-14T08:30:44.092Z,68.60
2019-02-14T08:31:48.605Z,68.60
2019-02-14T08:32:53.074Z,68.50
2019-02-14T08:33:57.560Z,68.40
2019-02-14T08:35:02.065Z,68.30
2019-02-14T08:36:06.539Z,68.30
2019-02-14T08:37:11.040Z,68.40
2019-02-14T08:38:15.529Z,68.20
2019-02-14T08:39:19.977Z,68.20
2019-02-14T08:40:27.562Z,68.20
2019-02-14T08:41:32.104Z,68.00
2019-02-14T08:42:36.665Z,67.90
2019-02-14T08:43:41.207Z,67.80
2019-02-14T08:44:45.693Z,67.80
2019-02-14T08:45:50.151Z,67.80
2019-02-14T08:46:54.632Z,67.80
2019-02-14T08:47:59.114Z,67.90
2019-02-14T08:49:03.577Z,67.90
2019-02-14T08:50:10.022Z,68.00
2019-02-14T08:51:14.492Z,68.60
2019-02-14T08:52:19.001Z,67.90
2019-02-14T08:53:23.459Z,67.80
2019-02-14T08:54:27.923Z,67.80
2019-02-14T08:55:32.390Z,67.90
2019-02-14T08:56:36.838Z,67.80
2019-02-14T08:57:41.329Z,67.70
2019-02-14T08:58:45.920Z,67.80
2019-02-14T08:59:50.458Z,67.80
2019-02-14T09:00:54.901Z,67.70
2019-02-14T09:01:59.377Z,67.50
2019-02-14T09:03:03.843Z,67.30
2019-02-14T09:04:08.325Z,67.40
2019-02-14T09:05:12.949Z,67.30
2019-02-14T09:06:17.414Z,68.10
2019-02-14T09:07:21.911Z,67.40
2019-02-14T09:08:26.403Z,67.20
2019-02-14T09:09:30.859Z,67.10
2019-02-14T09:10:35.387Z,66.80
2019-02-14T09:11:39.839Z,66.80
2019-02-14T09:12:44.320Z,67.00
2019-02-14T09:13:48.895Z,67.00
2019-02-14T09:14:53.591Z,66.80
2019-02-14T09:15:58.069Z,66.70
2019-02-14T09:17:02.560Z,66.60
2019-02-14T09:18:07.895Z,66.60
2019-02-14T09:19:12.481Z,66.50
2019-02-14T09:20:21.457Z,66.30
2019-02-14T09:21:26.160Z,66.10
2019-02-14T09:22:30.641Z,66.00
2019-02-14T09:23:35.101Z,66.10
2019-02-14T09:24:39.723Z,66.70
2019-02-14T09:25:44.275Z,65.80
2019-02-14T09:26:48.747Z,65.40
2019-02-14T09:27:53.216Z,65.60
2019-02-14T09:28:57.691Z,65.60
2019-02-14T09:30:02.184Z,65.60
2019-02-14T09:31:06.637Z,65.60
2019-02-14T09:32:11.139Z,65.70
2019-02-14T09:33:15.594Z,65.60
2019-02-14T09:34:20.044Z,65.80
2019-02-14T09:35:24.520Z,65.90
2019-02-14T09:36:28.975Z,65.70
2019-02-14T09:37:33.497Z,65.50
2019-02-14T09:38:37.968Z,65.10
2019-02-14T09:39:42.428Z,65.20
2019-02-14T09:40:46.887Z,65.40
2019-02-14T09:41:51.383Z,65.80
2019-02-14T09:42:55.852Z,65.60
2019-02-14T09:44:00.301Z,64.60
2019-02-14T09:45:07.625Z,65.20
2019-02-14T09:46:12.077Z,65.50
2019-02-14T09:47:16.561Z,65.40
2019-02-14T09:48:21.101Z,65.40
2019-02-14T09:49:25.618Z,65.20
2019-02-14T09:50:30.102Z,65.40
2019-02-14T09:51:34.605Z,66.20
2019-02-14T09:52:39.238Z,65.10
2019-02-14T09:53:43.808Z,65.30
2019-02-14T09:54:48.568Z,65.50
2019-02-14T09:55:53.059Z,65.50
2019-02-14T09:56:57.565Z,65.30
2019-02-14T09:58:02.072Z,66.70
2019-02-14T09:59:06.525Z,65.10
2019-02-14T10:00:18.407Z,64.90
2019-02-14T10:01:22.888Z,64.60
2019-02-14T10:02:27.399Z,64.30
2019-02-14T10:03:31.886Z,63.70
2019-02-14T10:04:36.699Z,63.30
2019-02-14T10:05:41.414Z,62.80
2019-02-14T10:06:45.978Z,62.50
2019-02-14T10:07:50.479Z,61.40
2019-02-14T10:08:54.981Z,61.20
2019-02-14T10:09:59.489Z,60.80
2019-02-14T10:11:03.968Z,59.60
2019-02-14T10:12:08.449Z,59.80
2019-02-14T10:13:12.940Z,60.00
2019-02-14T10:14:17.406Z,60.60
2019-02-14T10:15:21.887Z,60.90
2019-02-14T10:16:26.369Z,60.70
2019-02-14T10:17:30.835Z,60.80
2019-02-14T10:18:35.329Z,60.60
2019-02-14T10:19:39.815Z,60.20
2019-02-14T10:20:44.331Z,60.20
2019-02-14T10:21:48.823Z,60.30
2019-02-14T10:22:53.347Z,60.00
2019-02-14T10:23:57.839Z,60.30
2019-02-14T10:25:02.314Z,59.50
2019-02-14T10:26:06.838Z,60.40
2019-02-14T10:27:11.306Z,60.30
2019-02-14T10:28:15.808Z,60.00
2019-02-14T10:29:20.301Z,59.80
2019-02-14T10:30:24.853Z,59.60
2019-02-14T10:31:29.333Z,59.60
2019-02-14T10:32:33.812Z,59.20
2019-02-14T10:33:38.283Z,59.20
2019-02-14T10:34:42.845Z,58.60
2019-02-14T10:35:47.377Z,58.10
2019-02-14T10:36:51.870Z,58.00
2019-02-14T10:37:56.348Z,57.30
2019-02-14T10:39:00.827Z,56.60
2019-02-14T10:40:10.821Z,56.30
2019-02-14T10:41:15.356Z,56.00
2019-02-14T10:42:19.839Z,55.00
2019-02-14T10:43:24.352Z,54.50
2019-02-14T10:44:28.914Z,53.60
2019-02-14T10:45:33.384Z,52.90
2019-02-14T10:46:37.857Z,52.60
2019-02-14T10:47:42.340Z,52.20
2019-02-14T10:48:46.900Z,51.40
2019-02-14T10:49:51.416Z,51.10
2019-02-14T10:50:56.003Z,50.40
2019-02-14T10:52:00.627Z,49.90
2019-02-14T10:53:05.155Z,48.30
2019-02-14T10:54:09.615Z,48.20
2019-02-14T10:55:15.407Z,47.70
2019-02-14T10:56:19.899Z,47.20
2019-02-14T10:57:24.490Z,46.10
2019-02-14T10:58:29.035Z,45.70
2019-02-14T10:59:33.513Z,45.40
2019-02-14T11:00:38.173Z,45.50
2019-02-14T11:01:42.915Z,45.20
2019-02-14T11:02:47.733Z,45.20
2019-02-14T11:03:52.214Z,45.00
2019-02-14T11:04:56.706Z,44.50
2019-02-14T11:06:01.285Z,44.20
2019-02-14T11:07:05.787Z,44.30
2019-02-14T11:08:10.265Z,44.40
2019-02-14T11:09:14.799Z,44.30
2019-02-14T11:10:19.419Z,43.70
2019-02-14T11:11:23.912Z,43.80
2019-02-14T11:12:28.427Z,44.00
2019-02-14T11:13:32.965Z,43.20
2019-02-14T11:14:37.435Z,43.60
2019-02-14T11:15:41.923Z,43.40
2019-02-14T11:16:46.497Z,43.40
2019-02-14T11:17:50.986Z,43.70
2019-02-14T11:18:55.457Z,43.80
2019-02-14T11:19:59.967Z,43.90
2019-02-14T11:21:04.457Z,44.00
2019-02-14T11:22:08.938Z,43.80
2019-02-14T11:23:13.431Z,43.40
2019-02-14T11:24:17.923Z,43.60
2019-02-14T11:25:28.225Z,43.40
2019-02-14T11:26:32.844Z,43.50
2019-02-14T11:27:37.330Z,43.20
2019-02-14T11:28:41.874Z,43.00
2019-02-14T11:29:46.489Z,43.00
2019-02-14T11:30:51.029Z,42.40
2019-02-14T11:31:55.538Z,42.30
2019-02-14T11:33:00.000Z,42.20
2019-02-14T11:34:04.500Z,42.20
2019-02-14T11:35:10.449Z,41.70
2019-02-14T11:36:14.929Z,42.00
2019-02-14T11:37:19.401Z,41.70
2019-02-14T11:38:23.885Z,42.00
2019-02-14T11:39:28.701Z,41.70
2019-02-14T11:40:33.153Z,41.60
2019-02-14T11:41:37.628Z,40.80
2019-02-14T11:42:42.098Z,40.70
2019-02-14T11:43:46.552Z,40.30
2019-02-14T11:44:51.039Z,40.00
2019-02-14T11:45:55.541Z,39.60
2019-02-14T11:47:00.053Z,39.30
2019-02-14T11:48:04.523Z,39.00
2019-02-14T11:49:09.005Z,38.70
2019-02-14T11:50:13.651Z,38.70
2019-02-14T11:51:18.124Z,38.50
2019-02-14T11:52:22.609Z,38.50
2019-02-14T11:53:29.290Z,38.50
2019-02-14T11:54:33.321Z,38.50
2019-02-14T11:55:37.798Z,38.20
2019-02-14T11:56:42.268Z,38.40
2019-02-14T11:57:46.748Z,38.50
2019-02-14T11:58:51.228Z,38.40
2019-02-14T11:59:55.935Z,38.50
2019-02-14T12:01:00.417Z,38.50
2019-02-14T12:02:04.913Z,38.00
2019-02-14T12:03:09.443Z,37.50
2019-02-14T12:04:13.921Z,37.00
2019-02-14T12:05:18.445Z,36.90
2019-02-14T12:06:22.935Z,36.70
2019-02-14T12:07:27.407Z,36.50
2019-02-14T12:08:31.907Z,36.30
2019-02-14T12:09:36.374Z,36.30
2019-02-14T12:10:40.848Z,36.50
2019-02-14T12:12:49.361Z,35.90
2019-02-14T12:13:53.901Z,36.40
2019-02-14T12:14:58.376Z,36.10
2019-02-14T12:16:02.850Z,35.70
2019-02-14T12:17:07.395Z,35.30
2019-02-14T12:18:11.980Z,35.00
2019-02-14T12:19:16.528Z,34.50
2019-02-14T12:20:21.025Z,34.50
2019-02-14T12:21:25.507Z,34.00
2019-02-14T12:22:30.164Z,34.00
2019-02-14T12:23:34.663Z,33.80
2019-02-14T12:24:39.143Z,33.90
2019-02-14T12:25:43.781Z,34.00
2019-02-14T12:26:48.350Z,34.00
2019-02-14T12:27:52.939Z,34.00
2019-02-14T12:28:57.411Z,34.20
2019-02-14T12:30:01.931Z,34.20
2019-02-14T12:31:06.430Z,34.30
2019-02-14T12:32:10.992Z,34.10
2019-02-14T12:33:15.467Z,34.10
2019-02-14T12:34:20.183Z,34.00
2019-02-14T12:35:24.644Z,33.70
2019-02-14T12:36:29.426Z,33.70
2019-02-14T12:37:33.979Z,33.50
2019-02-14T12:38:38.708Z,33.40
2019-02-14T12:39:43.164Z,33.30
2019-02-14T12:40:47.638Z,33.30
2019-02-14T12:41:52.137Z,33.30
2019-02-14T12:42:56.597Z,33.10
2019-02-14T12:44:01.084Z,32.80
2019-02-14T12:45:08.751Z,33.50
2019-02-14T12:46:13.248Z,32.70
2019-02-14T12:47:17.705Z,32.40
2019-02-14T12:48:22.181Z,32.30
2019-02-14T12:49:26.666Z,31.30
2019-02-14T12:50:31.156Z,31.70
2019-02-14T12:51:35.639Z,31.90
2019-02-14T12:52:40.117Z,31.60
2019-02-14T12:53:44.600Z,31.50
2019-02-14T12:54:49.080Z,31.10
2019-02-14T12:55:53.579Z,31.00
2019-02-14T12:56:58.088Z,30.80
2019-02-14T12:58:02.595Z,30.70
2019-02-14T12:59:07.113Z,30.30
2019-02-14T13:00:19.917Z,31.00
2019-02-14T13:01:24.410Z,30.10
2019-02-14T13:02:28.997Z,30.20
2019-02-14T13:03:33.480Z,30.10
2019-02-14T13:04:37.962Z,30.00
2019-02-14T13:05:42.444Z,30.00
2019-02-14T13:06:46.986Z,29.90
2019-02-14T13:07:51.515Z,29.80
2019-02-14T13:08:56.021Z,29.50
2019-02-14T13:10:00.532Z,29.40
2019-02-14T13:11:05.074Z,29.80
2019-02-14T13:12:09.613Z,29.20
2019-02-14T13:13:14.087Z,29.20
2019-02-14T13:14:18.581Z,29.20
2019-02-14T13:15:27.244Z,29.00
2019-02-14T13:16:31.777Z,29.10
2019-02-14T13:17:36.253Z,29.20
2019-02-14T13:18:40.797Z,29.00
2019-02-14T13:19:45.334Z,29.00
2019-02-14T13:20:49.820Z,29.20
2019-02-14T13:21:54.361Z,29.30
2019-02-14T13:22:58.834Z,29.40
2019-02-14T13:24:04.047Z,29.60
2019-02-14T13:25:10.617Z,29.90
2019-02-14T13:26:15.244Z,29.60
2019-02-14T13:27:19.741Z,29.40
2019-02-14T13:29:28.298Z,28.90
2019-02-14T13:30:32.851Z,29.30
2019-02-14T13:31:37.366Z,28.90
2019-02-14T13:32:41.869Z,28.70
2019-02-14T13:33:46.476Z,28.70
2019-02-14T13:34:50.937Z,28.40
2019-02-14T13:35:55.433Z,28.50
2019-02-14T13:37:02.116Z,28.50
2019-02-14T13:38:06.125Z,28.60
2019-02-14T13:39:10.984Z,28.60
2019-02-14T13:40:15.486Z,28.70
2019-02-14T13:41:30.697Z,28.60
2019-02-14T13:42:30.963Z,28.40
2019-02-14T13:43:35.498Z,28.50
2019-02-14T13:44:40.042Z,28.40
2019-02-14T13:45:44.596Z,28.40
2019-02-14T13:46:49.050Z,28.30
2019-02-14T13:47:53.514Z,28.30
2019-02-14T13:48:58.005Z,28.20
2019-02-14T13:50:02.512Z,28.10
2019-02-14T13:51:07.145Z,28.20
2019-02-14T13:52:11.606Z,28.00
2019-02-14T13:53:16.084Z,28.10
2019-02-14T13:54:20.605Z,28.00